sensor_id;sensor_type;location;lat;lon;timestamp;P1;durP1;ratioP1;P2;durP2;ratioP2
82242;SDS011;71844;51.528;4.442;2023-11-18T00:02:17;8.27;;;3.05;;
82242;SDS011;71844;51.528;4.442;2023-11-18T00:04:44;5.18;;;2.75;;
82242;SDS011;71844;51.528;4.442;2023-11-18T00:07:11;5.30;;;2.75;;
82242;SDS011;71844;51.528;4.442;2023-11-18T00:09:38;5.03;;;2.53;;
82242;SDS011;71844;51.528;4.442;2023-11-18T00:12:04;5.90;;;2.97;;
82242;SDS011;71844;51.528;4.442;2023-11-18T00:14:32;5.70;;;2.92;;
82242;SDS011;71844;51.528;4.442;2023-11-18T00:16:59;5.63;;;2.70;;
82242;SDS011;71844;51.528;4.442;2023-11-18T00:19:25;4.72;;;2.33;;
82242;SDS011;71844;51.528;4.442;2023-11-18T00:21:52;5.90;;;3.33;;
82242;SDS011;71844;51.528;4.442;2023-11-18T00:24:19;6.55;;;3.40;;
82242;SDS011;71844;51.528;4.442;2023-11-18T00:26:47;5.43;;;2.50;;
82242;SDS011;71844;51.528;4.442;2023-11-18T00:29:14;6.78;;;3.05;;
82242;SDS011;71844;51.528;4.442;2023-11-18T00:31:41;7.43;;;2.97;;
82242;SDS011;71844;51.528;4.442;2023-11-18T00:34:11;5.13;;;2.67;;
82242;SDS011;71844;51.528;4.442;2023-11-18T00:36:42;6.00;;;2.55;;
82242;SDS011;71844;51.528;4.442;2023-11-18T00:39:22;11.90;;;3.30;;
82242;SDS011;71844;51.528;4.442;2023-11-18T00:41:50;5.57;;;2.53;;
82242;SDS011;71844;51.528;4.442;2023-11-18T00:44:20;5.25;;;2.78;;
82242;SDS011;71844;51.528;4.442;2023-11-18T00:46:49;4.72;;;2.47;;
82242;SDS011;71844;51.528;4.442;2023-11-18T00:49:16;5.68;;;2.53;;
82242;SDS011;71844;51.528;4.442;2023-11-18T00:51:47;5.60;;;2.92;;
82242;SDS011;71844;51.528;4.442;2023-11-18T00:54:17;6.03;;;2.92;;
82242;SDS011;71844;51.528;4.442;2023-11-18T00:56:44;5.90;;;2.83;;
82242;SDS011;71844;51.528;4.442;2023-11-18T01:01:41;5.20;;;2.25;;
82242;SDS011;71844;51.528;4.442;2023-11-18T01:04:08;6.80;;;2.75;;
82242;SDS011;71844;51.528;4.442;2023-11-18T01:06:41;4.35;;;2.47;;
82242;SDS011;71844;51.528;4.442;2023-11-18T01:09:12;6.32;;;2.55;;
82242;SDS011;71844;51.528;4.442;2023-11-18T01:11:43;5.90;;;2.90;;
82242;SDS011;71844;51.528;4.442;2023-11-18T01:14:39;5.75;;;3.05;;
82242;SDS011;71844;51.528;4.442;2023-11-18T01:17:08;5.68;;;2.78;;
82242;SDS011;71844;51.528;4.442;2023-11-18T01:19:40;6.22;;;2.47;;
82242;SDS011;71844;51.528;4.442;2023-11-18T01:22:10;7.18;;;3.15;;
82242;SDS011;71844;51.528;4.442;2023-11-18T01:24:41;5.20;;;3.03;;
82242;SDS011;71844;51.528;4.442;2023-11-18T01:27:12;6.18;;;3.15;;
82242;SDS011;71844;51.528;4.442;2023-11-18T01:29:43;6.00;;;3.22;;
82242;SDS011;71844;51.528;4.442;2023-11-18T01:32:12;6.28;;;3.28;;
82242;SDS011;71844;51.528;4.442;2023-11-18T01:34:40;7.40;;;3.17;;
82242;SDS011;71844;51.528;4.442;2023-11-18T01:37:09;6.78;;;3.35;;
82242;SDS011;71844;51.528;4.442;2023-11-18T01:39:36;8.30;;;3.17;;
82242;SDS011;71844;51.528;4.442;2023-11-18T01:42:03;6.05;;;3.20;;
82242;SDS011;71844;51.528;4.442;2023-11-18T01:44:30;6.07;;;3.38;;
82242;SDS011;71844;51.528;4.442;2023-11-18T01:47:00;6.93;;;3.10;;
82242;SDS011;71844;51.528;4.442;2023-11-18T01:49:29;9.93;;;3.60;;
82242;SDS011;71844;51.528;4.442;2023-11-18T01:51:56;6.43;;;3.20;;
82242;SDS011;71844;51.528;4.442;2023-11-18T01:54:23;6.72;;;3.70;;
82242;SDS011;71844;51.528;4.442;2023-11-18T01:56:50;7.38;;;3.72;;
82242;SDS011;71844;51.528;4.442;2023-11-18T01:59:19;7.05;;;3.67;;
82242;SDS011;71844;51.528;4.442;2023-11-18T02:01:47;6.82;;;3.58;;
82242;SDS011;71844;51.528;4.442;2023-11-18T02:06:47;8.05;;;3.40;;
82242;SDS011;71844;51.528;4.442;2023-11-18T02:09:18;5.47;;;2.80;;
82242;SDS011;71844;51.528;4.442;2023-11-18T02:12:14;7.30;;;3.15;;
82242;SDS011;71844;51.528;4.442;2023-11-18T02:14:49;8.88;;;3.10;;
82242;SDS011;71844;51.528;4.442;2023-11-18T02:17:21;6.70;;;3.53;;
82242;SDS011;71844;51.528;4.442;2023-11-18T02:19:51;6.43;;;3.30;;
82242;SDS011;71844;51.528;4.442;2023-11-18T02:22:21;9.20;;;3.88;;
82242;SDS011;71844;51.528;4.442;2023-11-18T02:24:48;6.65;;;3.28;;
82242;SDS011;71844;51.528;4.442;2023-11-18T02:27:16;7.38;;;3.47;;
82242;SDS011;71844;51.528;4.442;2023-11-18T02:29:46;6.22;;;3.25;;
82242;SDS011;71844;51.528;4.442;2023-11-18T02:32:19;6.90;;;3.22;;
82242;SDS011;71844;51.528;4.442;2023-11-18T02:34:58;5.78;;;3.03;;
82242;SDS011;71844;51.528;4.442;2023-11-18T02:37:40;6.32;;;3.35;;
82242;SDS011;71844;51.528;4.442;2023-11-18T02:40:12;6.20;;;3.53;;
82242;SDS011;71844;51.528;4.442;2023-11-18T02:42:43;6.47;;;3.00;;
82242;SDS011;71844;51.528;4.442;2023-11-18T02:45:15;5.28;;;3.03;;
82242;SDS011;71844;51.528;4.442;2023-11-18T02:47:46;5.45;;;3.08;;
82242;SDS011;71844;51.528;4.442;2023-11-18T02:50:14;5.82;;;2.88;;
82242;SDS011;71844;51.528;4.442;2023-11-18T02:52:42;5.43;;;3.10;;
82242;SDS011;71844;51.528;4.442;2023-11-18T02:55:09;5.57;;;2.72;;
82242;SDS011;71844;51.528;4.442;2023-11-18T02:57:37;5.45;;;2.60;;
82242;SDS011;71844;51.528;4.442;2023-11-18T03:00:04;6.57;;;3.47;;
82242;SDS011;71844;51.528;4.442;2023-11-18T03:02:35;8.13;;;3.58;;
82242;SDS011;71844;51.528;4.442;2023-11-18T03:05:02;7.35;;;3.67;;
82242;SDS011;71844;51.528;4.442;2023-11-18T03:07:29;9.40;;;4.00;;
82242;SDS011;71844;51.528;4.442;2023-11-18T03:09:56;7.50;;;3.33;;
82242;SDS011;71844;51.528;4.442;2023-11-18T03:12:23;5.50;;;3.22;;
82242;SDS011;71844;51.528;4.442;2023-11-18T03:14:54;6.53;;;3.10;;
82242;SDS011;71844;51.528;4.442;2023-11-18T03:17:21;5.95;;;3.17;;
82242;SDS011;71844;51.528;4.442;2023-11-18T03:19:49;7.85;;;3.47;;
82242;SDS011;71844;51.528;4.442;2023-11-18T03:22:16;5.30;;;3.15;;
82242;SDS011;71844;51.528;4.442;2023-11-18T03:24:43;6.47;;;3.38;;
82242;SDS011;71844;51.528;4.442;2023-11-18T03:27:10;6.25;;;3.20;;
82242;SDS011;71844;51.528;4.442;2023-11-18T03:29:37;6.72;;;3.58;;
82242;SDS011;71844;51.528;4.442;2023-11-18T03:32:06;7.53;;;3.17;;
82242;SDS011;71844;51.528;4.442;2023-11-18T03:34:33;9.18;;;3.67;;
82242;SDS011;71844;51.528;4.442;2023-11-18T03:37:00;6.60;;;3.22;;
82242;SDS011;71844;51.528;4.442;2023-11-18T03:39:27;6.18;;;3.38;;
82242;SDS011;71844;51.528;4.442;2023-11-18T03:41:54;6.82;;;3.58;;
82242;SDS011;71844;51.528;4.442;2023-11-18T03:44:23;5.38;;;3.13;;
82242;SDS011;71844;51.528;4.442;2023-11-18T03:46:50;6.53;;;3.03;;
82242;SDS011;71844;51.528;4.442;2023-11-18T03:49:17;6.13;;;2.85;;
82242;SDS011;71844;51.528;4.442;2023-11-18T03:51:45;8.35;;;3.60;;
82242;SDS011;71844;51.528;4.442;2023-11-18T03:54:12;5.32;;;3.13;;
82242;SDS011;71844;51.528;4.442;2023-11-18T03:56:40;6.47;;;3.08;;
82242;SDS011;71844;51.528;4.442;2023-11-18T03:59:06;7.07;;;3.17;;
82242;SDS011;71844;51.528;4.442;2023-11-18T04:01:33;7.15;;;3.42;;
82242;SDS011;71844;51.528;4.442;2023-11-18T04:04:00;7.88;;;3.50;;
82242;SDS011;71844;51.528;4.442;2023-11-18T04:06:27;6.18;;;3.15;;
82242;SDS011;71844;51.528;4.442;2023-11-18T04:08:54;5.32;;;3.15;;
82242;SDS011;71844;51.528;4.442;2023-11-18T04:11:21;5.07;;;2.83;;
82242;SDS011;71844;51.528;4.442;2023-11-18T04:13:48;8.20;;;3.08;;
82242;SDS011;71844;51.528;4.442;2023-11-18T04:16:15;5.25;;;2.65;;
82242;SDS011;71844;51.528;4.442;2023-11-18T04:18:43;4.28;;;2.30;;
82242;SDS011;71844;51.528;4.442;2023-11-18T04:21:10;6.32;;;3.03;;
82242;SDS011;71844;51.528;4.442;2023-11-18T04:23:40;6.95;;;2.80;;
82242;SDS011;71844;51.528;4.442;2023-11-18T04:26:08;5.55;;;2.85;;
82242;SDS011;71844;51.528;4.442;2023-11-18T04:28:35;6.97;;;2.90;;
82242;SDS011;71844;51.528;4.442;2023-11-18T04:31:03;5.63;;;2.47;;
82242;SDS011;71844;51.528;4.442;2023-11-18T04:33:31;6.50;;;3.17;;
82242;SDS011;71844;51.528;4.442;2023-11-18T04:35:59;8.40;;;3.20;;
82242;SDS011;71844;51.528;4.442;2023-11-18T04:38:26;5.57;;;2.78;;
82242;SDS011;71844;51.528;4.442;2023-11-18T04:40:54;6.07;;;3.00;;
82242;SDS011;71844;51.528;4.442;2023-11-18T04:46:06;6.55;;;2.92;;
82242;SDS011;71844;51.528;4.442;2023-11-18T04:48:33;7.50;;;2.72;;
82242;SDS011;71844;51.528;4.442;2023-11-18T04:51:06;4.97;;;2.65;;
82242;SDS011;71844;51.528;4.442;2023-11-18T04:53:33;9.15;;;2.83;;
82242;SDS011;71844;51.528;4.442;2023-11-18T04:56:00;5.68;;;2.60;;
82242;SDS011;71844;51.528;4.442;2023-11-18T04:58:27;6.78;;;2.72;;
82242;SDS011;71844;51.528;4.442;2023-11-18T05:00:54;7.18;;;2.92;;
82242;SDS011;71844;51.528;4.442;2023-11-18T05:03:21;7.60;;;2.63;;
82242;SDS011;71844;51.528;4.442;2023-11-18T05:05:50;6.70;;;2.80;;
82242;SDS011;71844;51.528;4.442;2023-11-18T05:08:21;4.82;;;2.58;;
82242;SDS011;71844;51.528;4.442;2023-11-18T05:10:49;8.52;;;2.42;;
82242;SDS011;71844;51.528;4.442;2023-11-18T05:13:17;7.70;;;2.85;;
82242;SDS011;71844;51.528;4.442;2023-11-18T05:15:45;5.30;;;2.60;;
82242;SDS011;71844;51.528;4.442;2023-11-18T05:18:13;6.25;;;2.42;;
82242;SDS011;71844;51.528;4.442;2023-11-18T05:20:42;6.50;;;2.85;;
82242;SDS011;71844;51.528;4.442;2023-11-18T05:23:10;6.60;;;2.35;;
82242;SDS011;71844;51.528;4.442;2023-11-18T05:25:44;7.78;;;2.97;;
82242;SDS011;71844;51.528;4.442;2023-11-18T05:28:11;8.68;;;2.22;;
82242;SDS011;71844;51.528;4.442;2023-11-18T05:30:38;6.18;;;2.55;;
82242;SDS011;71844;51.528;4.442;2023-11-18T05:33:09;8.02;;;2.90;;
82242;SDS011;71844;51.528;4.442;2023-11-18T05:35:41;5.85;;;2.58;;
82242;SDS011;71844;51.528;4.442;2023-11-18T05:38:18;5.75;;;2.58;;
82242;SDS011;71844;51.528;4.442;2023-11-18T05:40:48;5.38;;;1.80;;
82242;SDS011;71844;51.528;4.442;2023-11-18T05:43:28;8.25;;;2.13;;
82242;SDS011;71844;51.528;4.442;2023-11-18T05:46:02;6.97;;;2.78;;
82242;SDS011;71844;51.528;4.442;2023-11-18T05:48:49;6.30;;;1.80;;
82242;SDS011;71844;51.528;4.442;2023-11-18T05:51:20;3.88;;;1.77;;
82242;SDS011;71844;51.528;4.442;2023-11-18T05:53:48;8.27;;;2.40;;
82242;SDS011;71844;51.528;4.442;2023-11-18T05:56:15;4.50;;;2.08;;
82242;SDS011;71844;51.528;4.442;2023-11-18T06:01:12;8.73;;;2.05;;
82242;SDS011;71844;51.528;4.442;2023-11-18T06:03:39;4.38;;;1.77;;
82242;SDS011;71844;51.528;4.442;2023-11-18T06:06:08;4.95;;;1.98;;
82242;SDS011;71844;51.528;4.442;2023-11-18T06:08:39;3.10;;;1.55;;
82242;SDS011;71844;51.528;4.442;2023-11-18T06:11:11;5.43;;;1.92;;
82242;SDS011;71844;51.528;4.442;2023-11-18T06:13:45;6.22;;;2.63;;
82242;SDS011;71844;51.528;4.442;2023-11-18T06:16:18;5.85;;;2.15;;
82242;SDS011;71844;51.528;4.442;2023-11-18T06:18:49;5.32;;;2.38;;
82242;SDS011;71844;51.528;4.442;2023-11-18T06:21:18;6.93;;;2.83;;
82242;SDS011;71844;51.528;4.442;2023-11-18T06:23:46;6.03;;;2.10;;
82242;SDS011;71844;51.528;4.442;2023-11-18T06:26:14;7.93;;;2.30;;
82242;SDS011;71844;51.528;4.442;2023-11-18T06:28:42;6.28;;;2.20;;
82242;SDS011;71844;51.528;4.442;2023-11-18T06:31:11;4.55;;;2.15;;
82242;SDS011;71844;51.528;4.442;2023-11-18T06:33:42;4.15;;;1.88;;
82242;SDS011;71844;51.528;4.442;2023-11-18T06:38:40;5.68;;;2.03;;
82242;SDS011;71844;51.528;4.442;2023-11-18T06:41:07;5.03;;;2.38;;
82242;SDS011;71844;51.528;4.442;2023-11-18T06:43:37;4.40;;;2.13;;
82242;SDS011;71844;51.528;4.442;2023-11-18T06:46:20;4.88;;;1.98;;
82242;SDS011;71844;51.528;4.442;2023-11-18T06:49:01;6.50;;;2.10;;
82242;SDS011;71844;51.528;4.442;2023-11-18T06:51:31;6.97;;;2.40;;
82242;SDS011;71844;51.528;4.442;2023-11-18T06:54:03;6.32;;;2.22;;
82242;SDS011;71844;51.528;4.442;2023-11-18T06:56:40;6.80;;;2.13;;
82242;SDS011;71844;51.528;4.442;2023-11-18T06:59:11;6.05;;;2.05;;
82242;SDS011;71844;51.528;4.442;2023-11-18T07:01:40;3.95;;;1.90;;
82242;SDS011;71844;51.528;4.442;2023-11-18T07:04:09;3.95;;;2.05;;
82242;SDS011;71844;51.528;4.442;2023-11-18T07:06:36;4.78;;;2.00;;
82242;SDS011;71844;51.528;4.442;2023-11-18T07:09:07;5.07;;;1.73;;
82242;SDS011;71844;51.528;4.442;2023-11-18T07:11:45;5.15;;;2.05;;
82242;SDS011;71844;51.528;4.442;2023-11-18T07:14:13;5.38;;;2.00;;
82242;SDS011;71844;51.528;4.442;2023-11-18T07:16:44;5.35;;;1.75;;
82242;SDS011;71844;51.528;4.442;2023-11-18T07:19:11;4.68;;;2.05;;
82242;SDS011;71844;51.528;4.442;2023-11-18T07:21:47;6.00;;;2.03;;
82242;SDS011;71844;51.528;4.442;2023-11-18T07:24:14;4.40;;;1.73;;
82242;SDS011;71844;51.528;4.442;2023-11-18T07:26:41;5.45;;;1.50;;
82242;SDS011;71844;51.528;4.442;2023-11-18T07:29:07;4.85;;;1.55;;
82242;SDS011;71844;51.528;4.442;2023-11-18T07:31:34;3.67;;;1.65;;
82242;SDS011;71844;51.528;4.442;2023-11-18T07:34:04;5.60;;;1.55;;
82242;SDS011;71844;51.528;4.442;2023-11-18T07:36:32;6.05;;;2.10;;
82242;SDS011;71844;51.528;4.442;2023-11-18T07:38:59;3.00;;;1.50;;
82242;SDS011;71844;51.528;4.442;2023-11-18T07:41:27;4.70;;;1.30;;
82242;SDS011;71844;51.528;4.442;2023-11-18T07:43:58;3.83;;;1.63;;
82242;SDS011;71844;51.528;4.442;2023-11-18T07:46:27;4.47;;;1.90;;
82242;SDS011;71844;51.528;4.442;2023-11-18T07:48:57;5.57;;;1.40;;
82242;SDS011;71844;51.528;4.442;2023-11-18T07:51:24;4.25;;;1.50;;
82242;SDS011;71844;51.528;4.442;2023-11-18T07:53:51;5.28;;;1.75;;
82242;SDS011;71844;51.528;4.442;2023-11-18T07:56:19;4.85;;;1.45;;
82242;SDS011;71844;51.528;4.442;2023-11-18T07:58:49;3.30;;;1.33;;
82242;SDS011;71844;51.528;4.442;2023-11-18T08:01:18;3.70;;;1.30;;
82242;SDS011;71844;51.528;4.442;2023-11-18T08:03:47;4.10;;;1.38;;
82242;SDS011;71844;51.528;4.442;2023-11-18T08:06:14;5.70;;;1.63;;
82242;SDS011;71844;51.528;4.442;2023-11-18T08:08:41;4.65;;;1.20;;
82242;SDS011;71844;51.528;4.442;2023-11-18T08:11:11;3.83;;;1.30;;
82242;SDS011;71844;51.528;4.442;2023-11-18T08:13:40;3.13;;;1.35;;
82242;SDS011;71844;51.528;4.442;2023-11-18T08:16:07;4.55;;;1.10;;
82242;SDS011;71844;51.528;4.442;2023-11-18T08:18:35;5.35;;;1.23;;
82242;SDS011;71844;51.528;4.442;2023-11-18T08:21:03;5.22;;;1.33;;
82242;SDS011;71844;51.528;4.442;2023-11-18T08:23:33;6.78;;;1.73;;
82242;SDS011;71844;51.528;4.442;2023-11-18T08:26:00;4.18;;;1.35;;
82242;SDS011;71844;51.528;4.442;2023-11-18T08:28:28;5.80;;;2.33;;
82242;SDS011;71844;51.528;4.442;2023-11-18T08:30:55;4.65;;;1.35;;
82242;SDS011;71844;51.528;4.442;2023-11-18T08:33:22;4.65;;;1.17;;
82242;SDS011;71844;51.528;4.442;2023-11-18T08:35:52;3.70;;;1.10;;
82242;SDS011;71844;51.528;4.442;2023-11-18T08:38:19;3.08;;;1.13;;
82242;SDS011;71844;51.528;4.442;2023-11-18T08:40:46;4.25;;;1.02;;
82242;SDS011;71844;51.528;4.442;2023-11-18T08:43:15;4.68;;;1.10;;
82242;SDS011;71844;51.528;4.442;2023-11-18T08:45:43;5.47;;;1.50;;
82242;SDS011;71844;51.528;4.442;2023-11-18T08:48:10;3.90;;;1.13;;
82242;SDS011;71844;51.528;4.442;2023-11-18T08:50:37;3.53;;;1.20;;
82242;SDS011;71844;51.528;4.442;2023-11-18T08:53:07;4.50;;;1.08;;
82242;SDS011;71844;51.528;4.442;2023-11-18T08:55:37;6.03;;;1.08;;
82242;SDS011;71844;51.528;4.442;2023-11-18T08:58:12;2.60;;;0.90;;
82242;SDS011;71844;51.528;4.442;2023-11-18T09:00:46;2.75;;;0.73;;
82242;SDS011;71844;51.528;4.442;2023-11-18T09:03:25;4.63;;;1.20;;
82242;SDS011;71844;51.528;4.442;2023-11-18T09:06:03;4.18;;;0.88;;
82242;SDS011;71844;51.528;4.442;2023-11-18T09:08:32;4.45;;;1.45;;
82242;SDS011;71844;51.528;4.442;2023-11-18T09:11:05;2.25;;;0.80;;
82242;SDS011;71844;51.528;4.442;2023-11-18T09:13:34;3.47;;;0.98;;
82242;SDS011;71844;51.528;4.442;2023-11-18T09:16:05;3.67;;;0.82;;
82242;SDS011;71844;51.528;4.442;2023-11-18T09:18:40;4.30;;;1.30;;
82242;SDS011;71844;51.528;4.442;2023-11-18T09:21:09;3.95;;;0.90;;
82242;SDS011;71844;51.528;4.442;2023-11-18T09:23:46;4.82;;;1.17;;
82242;SDS011;71844;51.528;4.442;2023-11-18T09:26:14;4.25;;;1.50;;
82242;SDS011;71844;51.528;4.442;2023-11-18T09:28:43;2.60;;;0.77;;
82242;SDS011;71844;51.528;4.442;2023-11-18T09:31:13;3.25;;;1.10;;
82242;SDS011;71844;51.528;4.442;2023-11-18T09:33:40;3.03;;;0.90;;
82242;SDS011;71844;51.528;4.442;2023-11-18T09:36:13;6.18;;;1.13;;
82242;SDS011;71844;51.528;4.442;2023-11-18T09:38:40;3.78;;;1.40;;
82242;SDS011;71844;51.528;4.442;2023-11-18T09:41:08;3.85;;;1.27;;
82242;SDS011;71844;51.528;4.442;2023-11-18T09:43:40;3.42;;;1.00;;
82242;SDS011;71844;51.528;4.442;2023-11-18T09:46:10;2.70;;;0.90;;
82242;SDS011;71844;51.528;4.442;2023-11-18T09:51:33;6.28;;;1.20;;
82242;SDS011;71844;51.528;4.442;2023-11-18T09:54:04;3.92;;;1.23;;
82242;SDS011;71844;51.528;4.442;2023-11-18T10:02:13;2.72;;;0.95;;
82242;SDS011;71844;51.528;4.442;2023-11-18T10:04:40;4.60;;;1.45;;
82242;SDS011;71844;51.528;4.442;2023-11-18T10:07:08;2.88;;;1.17;;
82242;SDS011;71844;51.528;4.442;2023-11-18T10:09:37;3.85;;;1.05;;
82242;SDS011;71844;51.528;4.442;2023-11-18T10:12:07;3.55;;;1.40;;
82242;SDS011;71844;51.528;4.442;2023-11-18T10:14:34;3.47;;;1.00;;
82242;SDS011;71844;51.528;4.442;2023-11-18T10:17:05;2.58;;;1.30;;
82242;SDS011;71844;51.528;4.442;2023-11-18T10:19:51;3.50;;;1.08;;
82242;SDS011;71844;51.528;4.442;2023-11-18T10:22:23;4.50;;;1.08;;
82242;SDS011;71844;51.528;4.442;2023-11-18T10:24:53;3.58;;;1.17;;
82242;SDS011;71844;51.528;4.442;2023-11-18T10:27:25;4.82;;;1.75;;
82242;SDS011;71844;51.528;4.442;2023-11-18T10:29:57;3.70;;;1.45;;
82242;SDS011;71844;51.528;4.442;2023-11-18T10:32:24;4.90;;;1.25;;
82242;SDS011;71844;51.528;4.442;2023-11-18T10:34:57;2.85;;;1.08;;
82242;SDS011;71844;51.528;4.442;2023-11-18T10:37:25;3.28;;;1.23;;
82242;SDS011;71844;51.528;4.442;2023-11-18T10:39:54;3.78;;;1.17;;
82242;SDS011;71844;51.528;4.442;2023-11-18T10:42:20;3.00;;;1.13;;
82242;SDS011;71844;51.528;4.442;2023-11-18T10:44:57;5.35;;;1.60;;
82242;SDS011;71844;51.528;4.442;2023-11-18T10:47:25;6.30;;;1.42;;
82242;SDS011;71844;51.528;4.442;2023-11-18T10:49:56;4.40;;;1.55;;
82242;SDS011;71844;51.528;4.442;2023-11-18T10:52:23;3.70;;;1.33;;
82242;SDS011;71844;51.528;4.442;2023-11-18T10:55:01;2.55;;;1.13;;
82242;SDS011;71844;51.528;4.442;2023-11-18T10:57:41;4.25;;;1.58;;
82242;SDS011;71844;51.528;4.442;2023-11-18T11:00:09;3.25;;;1.55;;
82242;SDS011;71844;51.528;4.442;2023-11-18T11:02:45;4.18;;;1.40;;
82242;SDS011;71844;51.528;4.442;2023-11-18T11:05:29;3.90;;;1.70;;
82242;SDS011;71844;51.528;4.442;2023-11-18T11:08:00;3.58;;;1.27;;
82242;SDS011;71844;51.528;4.442;2023-11-18T11:10:37;2.70;;;1.40;;
82242;SDS011;71844;51.528;4.442;2023-11-18T11:13:08;3.17;;;1.35;;
82242;SDS011;71844;51.528;4.442;2023-11-18T11:15:38;4.10;;;1.30;;
82242;SDS011;71844;51.528;4.442;2023-11-18T11:18:22;3.28;;;1.10;;
82242;SDS011;71844;51.528;4.442;2023-11-18T11:21:06;2.88;;;1.02;;
82242;SDS011;71844;51.528;4.442;2023-11-18T11:23:50;2.35;;;1.20;;
82242;SDS011;71844;51.528;4.442;2023-11-18T11:26:34;2.97;;;1.20;;
82242;SDS011;71844;51.528;4.442;2023-11-18T11:29:13;3.25;;;1.25;;
82242;SDS011;71844;51.528;4.442;2023-11-18T11:32:06;4.13;;;1.40;;
82242;SDS011;71844;51.528;4.442;2023-11-18T11:34:51;2.90;;;1.33;;
82242;SDS011;71844;51.528;4.442;2023-11-18T11:37:24;2.38;;;1.10;;
82242;SDS011;71844;51.528;4.442;2023-11-18T11:39:56;3.00;;;1.33;;
82242;SDS011;71844;51.528;4.442;2023-11-18T11:42:24;2.70;;;1.00;;
82242;SDS011;71844;51.528;4.442;2023-11-18T11:44:53;2.35;;;0.90;;
82242;SDS011;71844;51.528;4.442;2023-11-18T11:47:25;3.40;;;1.20;;
82242;SDS011;71844;51.528;4.442;2023-11-18T11:49:58;1.92;;;0.70;;
82242;SDS011;71844;51.528;4.442;2023-11-18T11:52:46;2.42;;;0.88;;
82242;SDS011;71844;51.528;4.442;2023-11-18T11:55:29;2.75;;;0.90;;
82242;SDS011;71844;51.528;4.442;2023-11-18T11:58:33;2.95;;;1.00;;
82242;SDS011;71844;51.528;4.442;2023-11-18T12:01:18;1.88;;;0.93;;
82242;SDS011;71844;51.528;4.442;2023-11-18T12:04:04;2.15;;;0.75;;
82242;SDS011;71844;51.528;4.442;2023-11-18T12:09:10;2.03;;;0.80;;
82242;SDS011;71844;51.528;4.442;2023-11-18T12:11:48;3.30;;;1.30;;
82242;SDS011;71844;51.528;4.442;2023-11-18T12:14:23;2.17;;;0.82;;
82242;SDS011;71844;51.528;4.442;2023-11-18T12:19:32;1.95;;;0.90;;
82242;SDS011;71844;51.528;4.442;2023-11-18T12:22:11;1.85;;;0.70;;
82242;SDS011;71844;51.528;4.442;2023-11-18T12:33:04;1.90;;;0.88;;
82242;SDS011;71844;51.528;4.442;2023-11-18T12:43:38;1.48;;;0.70;;
82242;SDS011;71844;51.528;4.442;2023-11-18T12:49:14;1.27;;;0.60;;
82242;SDS011;71844;51.528;4.442;2023-11-18T12:51:43;1.50;;;0.60;;
82242;SDS011;71844;51.528;4.442;2023-11-18T12:54:11;2.42;;;0.82;;
82242;SDS011;71844;51.528;4.442;2023-11-18T12:56:50;1.60;;;0.68;;
82242;SDS011;71844;51.528;4.442;2023-11-18T12:59:20;1.77;;;0.60;;
82242;SDS011;71844;51.528;4.442;2023-11-18T13:01:50;2.75;;;0.60;;
82242;SDS011;71844;51.528;4.442;2023-11-18T13:04:20;1.58;;;0.70;;
82242;SDS011;71844;51.528;4.442;2023-11-18T13:06:48;1.17;;;0.43;;
82242;SDS011;71844;51.528;4.442;2023-11-18T13:09:21;1.77;;;0.47;;
82242;SDS011;71844;51.528;4.442;2023-11-18T13:11:53;0.85;;;0.30;;
82242;SDS011;71844;51.528;4.442;2023-11-18T13:14:33;0.95;;;0.35;;
82242;SDS011;71844;51.528;4.442;2023-11-18T13:17:03;1.33;;;0.40;;
82242;SDS011;71844;51.528;4.442;2023-11-18T13:19:34;2.13;;;0.60;;
82242;SDS011;71844;51.528;4.442;2023-11-18T13:22:02;0.80;;;0.30;;
82242;SDS011;71844;51.528;4.442;2023-11-18T13:24:30;0.85;;;0.30;;
82242;SDS011;71844;51.528;4.442;2023-11-18T13:26:57;1.00;;;0.30;;
82242;SDS011;71844;51.528;4.442;2023-11-18T13:29:30;0.68;;;0.20;;
82242;SDS011;71844;51.528;4.442;2023-11-18T13:31:58;0.60;;;0.20;;
82242;SDS011;71844;51.528;4.442;2023-11-18T13:34:30;1.33;;;0.40;;
82242;SDS011;71844;51.528;4.442;2023-11-18T13:37:05;0.98;;;0.32;;
82242;SDS011;71844;51.528;4.442;2023-11-18T13:39:36;1.65;;;0.32;;
82242;SDS011;71844;51.528;4.442;2023-11-18T13:42:20;0.95;;;0.30;;
82242;SDS011;71844;51.528;4.442;2023-11-18T13:45:03;1.15;;;0.30;;
82242;SDS011;71844;51.528;4.442;2023-11-18T13:47:38;1.58;;;0.40;;
82242;SDS011;71844;51.528;4.442;2023-11-18T13:50:09;0.63;;;0.28;;
82242;SDS011;71844;51.528;4.442;2023-11-18T13:52:36;0.77;;;0.20;;
82242;SDS011;71844;51.528;4.442;2023-11-18T13:55:06;0.85;;;0.40;;
82242;SDS011;71844;51.528;4.442;2023-11-18T13:57:35;0.95;;;0.35;;
82242;SDS011;71844;51.528;4.442;2023-11-18T14:00:03;1.08;;;0.50;;
82242;SDS011;71844;51.528;4.442;2023-11-18T14:02:33;0.57;;;0.20;;
82242;SDS011;71844;51.528;4.442;2023-11-18T14:05:02;0.63;;;0.30;;
82242;SDS011;71844;51.528;4.442;2023-11-18T14:07:31;0.60;;;0.20;;
82242;SDS011;71844;51.528;4.442;2023-11-18T14:10:04;1.00;;;0.50;;
82242;SDS011;71844;51.528;4.442;2023-11-18T14:15:01;0.57;;;0.20;;
82242;SDS011;71844;51.528;4.442;2023-11-18T14:17:29;1.17;;;0.30;;
82242;SDS011;71844;51.528;4.442;2023-11-18T14:19:57;0.52;;;0.20;;
82242;SDS011;71844;51.528;4.442;2023-11-18T14:22:24;0.98;;;0.45;;
82242;SDS011;71844;51.528;4.442;2023-11-18T14:24:51;0.63;;;0.30;;
82242;SDS011;71844;51.528;4.442;2023-11-18T14:27:20;1.23;;;0.30;;
82242;SDS011;71844;51.528;4.442;2023-11-18T14:29:46;1.23;;;0.40;;
82242;SDS011;71844;51.528;4.442;2023-11-18T14:32:13;0.40;;;0.20;;
82242;SDS011;71844;51.528;4.442;2023-11-18T14:34:41;0.73;;;0.40;;
82242;SDS011;71844;51.528;4.442;2023-11-18T14:37:08;0.60;;;0.30;;
82242;SDS011;71844;51.528;4.442;2023-11-18T14:39:35;1.98;;;0.45;;
82242;SDS011;71844;51.528;4.442;2023-11-18T14:42:03;1.08;;;0.65;;
82242;SDS011;71844;51.528;4.442;2023-11-18T14:44:31;0.88;;;0.50;;
82242;SDS011;71844;51.528;4.442;2023-11-18T14:46:57;1.13;;;0.63;;
82242;SDS011;71844;51.528;4.442;2023-11-18T14:49:27;1.10;;;0.40;;
82242;SDS011;71844;51.528;4.442;2023-11-18T14:51:54;1.05;;;0.60;;
82242;SDS011;71844;51.528;4.442;2023-11-18T14:54:21;1.17;;;0.57;;
82242;SDS011;71844;51.528;4.442;2023-11-18T14:56:48;1.30;;;0.60;;
82242;SDS011;71844;51.528;4.442;2023-11-18T14:59:15;1.60;;;0.80;;
82242;SDS011;71844;51.528;4.442;2023-11-18T15:01:42;1.30;;;0.70;;
82242;SDS011;71844;51.528;4.442;2023-11-18T15:04:10;3.42;;;0.85;;
82242;SDS011;71844;51.528;4.442;2023-11-18T15:06:38;1.25;;;0.60;;
82242;SDS011;71844;51.528;4.442;2023-11-18T15:09:07;1.40;;;0.70;;
82242;SDS011;71844;51.528;4.442;2023-11-18T15:11:37;0.93;;;0.65;;
82242;SDS011;71844;51.528;4.442;2023-11-18T15:14:04;0.93;;;0.50;;
82242;SDS011;71844;51.528;4.442;2023-11-18T15:16:34;1.05;;;0.52;;
82242;SDS011;71844;51.528;4.442;2023-11-18T15:19:01;1.25;;;0.82;;
82242;SDS011;71844;51.528;4.442;2023-11-18T15:21:28;1.45;;;0.80;;
82242;SDS011;71844;51.528;4.442;2023-11-18T15:23:58;1.42;;;0.70;;
82242;SDS011;71844;51.528;4.442;2023-11-18T15:26:28;3.92;;;0.82;;
82242;SDS011;71844;51.528;4.442;2023-11-18T15:28:57;1.65;;;0.60;;
82242;SDS011;71844;51.528;4.442;2023-11-18T15:31:25;2.03;;;1.23;;
82242;SDS011;71844;51.528;4.442;2023-11-18T15:33:55;2.25;;;0.90;;
82242;SDS011;71844;51.528;4.442;2023-11-18T15:36:23;1.42;;;0.82;;
82242;SDS011;71844;51.528;4.442;2023-11-18T15:38:51;1.40;;;0.70;;
82242;SDS011;71844;51.528;4.442;2023-11-18T15:41:18;2.40;;;0.88;;
82242;SDS011;71844;51.528;4.442;2023-11-18T15:43:46;1.80;;;1.00;;
82242;SDS011;71844;51.528;4.442;2023-11-18T15:46:14;2.42;;;0.93;;
82242;SDS011;71844;51.528;4.442;2023-11-18T15:48:41;2.67;;;1.23;;
82242;SDS011;71844;51.528;4.442;2023-11-18T15:51:08;2.40;;;0.98;;
82242;SDS011;71844;51.528;4.442;2023-11-18T15:53:39;2.25;;;1.08;;
82242;SDS011;71844;51.528;4.442;2023-11-18T15:56:06;2.20;;;1.02;;